createdAt,value
2023-04-17T00:00:28.265Z,14.04
2023-04-17T00:02:56.220Z,14.23
2023-04-17T00:05:24.033Z,14.10
2023-04-17T00:07:51.526Z,14.22
2023-04-17T00:10:19.394Z,14.41
2023-04-17T00:12:46.806Z,14.48
2023-04-17T00:15:14.187Z,14.07
2023-04-17T00:17:41.941Z,14.09
2023-04-17T00:20:10.769Z,14.01
2023-04-17T00:22:38.672Z,14.11
2023-04-17T00:25:06.828Z,13.82
2023-04-17T00:27:34.455Z,14.11
2023-04-17T00:30:01.958Z,13.99
2023-04-17T00:32:29.751Z,13.74
2023-04-17T00:34:57.101Z,13.77
2023-04-17T00:37:24.498Z,14.08
2023-04-17T00:39:52.448Z,13.74
2023-04-17T00:42:19.901Z,14.16
2023-04-17T00:44:47.397Z,14.04
2023-04-17T00:47:15.484Z,14.21
2023-04-17T00:49:43.184Z,14.14
2023-04-17T00:52:10.612Z,13.78
2023-04-17T00:54:38.431Z,13.96
2023-04-17T00:57:06.384Z,14.02
2023-04-17T00:59:34.102Z,14.12
2023-04-17T01:02:02.010Z,14.09
2023-04-17T01:04:29.475Z,14.22
2023-04-17T01:06:57.369Z,13.95
2023-04-17T01:09:25.105Z,13.84
2023-04-17T01:11:53.059Z,13.39
2023-04-17T01:14:20.835Z,13.80
2023-04-17T01:16:48.777Z,13.68
2023-04-17T01:19:17.074Z,13.81
2023-04-17T01:21:44.498Z,13.86
2023-04-17T01:24:12.882Z,13.90
2023-04-17T01:26:41.540Z,13.68
2023-04-17T01:29:09.124Z,13.78
2023-04-17T01:31:37.454Z,13.65
2023-04-17T01:34:05.301Z,14.06
2023-04-17T01:36:33.035Z,14.16
2023-04-17T01:39:00.762Z,14.31
2023-04-17T01:41:28.253Z,14.23
2023-04-17T01:43:55.714Z,14.29
2023-04-17T01:46:23.499Z,14.41
2023-04-17T01:48:50.997Z,14.34
2023-04-17T01:51:18.469Z,14.21
2023-04-17T01:53:46.113Z,14.17
2023-04-17T01:56:13.916Z,14.34
2023-04-17T01:58:43.051Z,14.43
2023-04-17T02:01:10.883Z,14.47
2023-04-17T02:03:38.758Z,14.47
2023-04-17T02:06:06.675Z,14.24
2023-04-17T02:08:34.584Z,13.98
2023-04-17T02:11:03.815Z,13.80
2023-04-17T02:13:31.872Z,13.93
2023-04-17T02:15:59.439Z,13.70
2023-04-17T02:18:29.731Z,13.88
2023-04-17T02:20:57.109Z,13.95
2023-04-17T02:23:24.528Z,14.06
2023-04-17T02:25:52.300Z,14.16
2023-04-17T02:28:20.035Z,14.22
2023-04-17T02:30:47.405Z,14.27
2023-04-17T02:33:15.037Z,14.47
2023-04-17T02:35:42.518Z,14.23
2023-04-17T02:38:10.037Z,14.50
2023-04-17T02:40:38.927Z,14.52
2023-04-17T02:43:06.319Z,14.53
2023-04-17T02:45:35.573Z,14.48
2023-04-17T02:48:03.418Z,14.65
2023-04-17T02:50:31.256Z,14.68
2023-04-17T02:53:00.168Z,14.63
2023-04-17T02:55:27.877Z,14.57
2023-04-17T02:57:55.384Z,14.64
2023-04-17T03:00:23.230Z,14.52
2023-04-17T03:02:51.194Z,14.36
2023-04-17T03:05:20.353Z,14.27
2023-04-17T03:07:48.032Z,14.16
2023-04-17T03:10:15.840Z,14.20
2023-04-17T03:12:44.984Z,13.99
2023-04-17T03:15:13.369Z,14.23
2023-04-17T03:17:41.218Z,13.97
2023-04-17T03:20:09.289Z,14.05
2023-04-17T03:22:36.834Z,14.33
2023-04-17T03:25:05.797Z,14.43
2023-04-17T03:27:34.603Z,14.43
2023-04-17T03:30:02.689Z,14.26
2023-04-17T03:32:32.157Z,14.44
2023-04-17T03:34:59.591Z,14.51
2023-04-17T03:37:27.671Z,14.14
2023-04-17T03:39:55.707Z,14.25
2023-04-17T03:42:26.926Z,14.10
2023-04-17T03:44:55.460Z,14.46
2023-04-17T03:47:23.705Z,14.34
2023-04-17T03:49:51.165Z,14.39
2023-04-17T03:52:19.180Z,14.40
2023-04-17T03:54:48.789Z,14.43
2023-04-17T03:57:16.284Z,14.72
2023-04-17T03:59:44.468Z,14.80
2023-04-17T04:02:12.056Z,14.74
2023-04-17T04:04:40.822Z,14.82
2023-04-17T04:07:09.414Z,14.76
2023-04-17T04:09:37.079Z,14.47
2023-04-17T04:12:05.187Z,14.69
2023-04-17T04:14:34.650Z,14.70
2023-04-17T04:17:03.549Z,14.70
2023-04-17T04:19:31.245Z,14.84
2023-04-17T04:21:58.879Z,14.74
2023-04-17T04:24:28.589Z,14.47
2023-04-17T04:27:02.383Z,14.48
2023-04-17T04:29:29.781Z,14.50
2023-04-17T04:31:59.167Z,14.34
2023-04-17T04:34:30.256Z,14.39
2023-04-17T04:36:57.920Z,14.56
2023-04-17T04:39:29.861Z,14.73
2023-04-17T04:42:05.872Z,14.80
2023-04-17T04:44:33.923Z,14.84
2023-04-17T04:47:01.811Z,14.91
2023-04-17T04:49:29.351Z,14.90
2023-04-17T04:51:56.732Z,14.93
2023-04-17T04:54:25.957Z,15.11
2023-04-17T04:56:54.499Z,15.20
2023-04-17T04:59:22.220Z,15.29
2023-04-17T05:01:50.715Z,15.32
2023-04-17T05:04:18.885Z,15.40
2023-04-17T05:06:47.780Z,15.40
2023-04-17T05:09:17.100Z,15.34
2023-04-17T05:11:45.395Z,15.48
2023-04-17T05:14:12.765Z,15.50
2023-04-17T05:16:41.204Z,15.55
2023-04-17T05:19:09.090Z,15.49
2023-04-17T05:21:37.546Z,15.46
2023-04-17T05:24:05.414Z,15.52
2023-04-17T05:26:33.460Z,15.64
2023-04-17T05:29:01.465Z,15.68
2023-04-17T05:31:29.839Z,15.67
2023-04-17T05:33:57.760Z,15.76
2023-04-17T05:36:26.551Z,15.82
2023-04-17T05:38:54.397Z,15.85
2023-04-17T05:41:21.775Z,15.95
2023-04-17T05:43:49.171Z,16.05
2023-04-17T05:46:17.621Z,16.20
2023-04-17T05:48:45.129Z,16.11
2023-04-17T05:51:12.810Z,16.24
2023-04-17T05:53:40.536Z,16.24
2023-04-17T05:56:08.031Z,16.26
2023-04-17T05:58:36.146Z,16.33
2023-04-17T06:01:06.259Z,16.46
2023-04-17T06:03:34.572Z,16.38
2023-04-17T06:06:03.782Z,16.55
2023-04-17T06:08:31.678Z,16.69
2023-04-17T06:10:59.380Z,16.76
2023-04-17T06:13:27.269Z,16.80
2023-04-17T06:15:54.984Z,16.90
2023-04-17T06:18:22.727Z,16.80
2023-04-17T06:20:50.519Z,16.98
2023-04-17T06:23:17.910Z,16.98
2023-04-17T06:25:45.734Z,17.05
2023-04-17T06:28:13.211Z,17.07
2023-04-17T06:30:40.878Z,17.38
2023-04-17T06:33:08.749Z,17.40
2023-04-17T06:35:37.670Z,17.55
2023-04-17T06:38:05.341Z,17.58
2023-04-17T06:40:33.227Z,17.58
2023-04-17T06:43:00.889Z,17.39
2023-04-17T06:45:28.454Z,17.60
2023-04-17T06:47:57.040Z,17.74
2023-04-17T06:50:24.508Z,17.67
2023-04-17T06:52:51.910Z,17.59
2023-04-17T06:55:20.021Z,17.74
2023-04-17T06:57:47.386Z,17.79
2023-04-17T07:00:15.288Z,17.73
2023-04-17T07:02:43.068Z,17.89
2023-04-17T07:05:11.022Z,17.95
2023-04-17T07:07:39.689Z,17.97
2023-04-17T07:10:07.705Z,18.11
2023-04-17T07:12:35.124Z,18.20
2023-04-17T07:15:02.953Z,18.12
2023-04-17T07:17:30.868Z,18.16
2023-04-17T07:19:58.287Z,18.15
2023-04-17T07:22:27.292Z,18.35
2023-04-17T07:24:55.220Z,18.39
2023-04-17T07:27:22.704Z,18.55
2023-04-17T07:29:54.746Z,18.53
2023-04-17T07:32:24.467Z,18.31
2023-04-17T07:34:52.074Z,18.52
2023-04-17T07:37:19.935Z,18.75
2023-04-17T07:39:50.763Z,18.98
2023-04-17T07:42:18.182Z,19.04
2023-04-17T07:44:47.133Z,19.12
2023-04-17T07:47:15.009Z,19.24
2023-04-17T07:49:46.329Z,18.98
2023-04-17T07:52:15.213Z,18.86
2023-04-17T07:54:42.888Z,18.74
2023-04-17T07:57:11.110Z,19.07
2023-04-17T07:59:38.641Z,19.09
2023-04-17T08:02:06.614Z,19.31
2023-04-17T08:04:34.658Z,19.45
2023-04-17T08:07:03.028Z,19.65
2023-04-17T08:09:30.490Z,19.46
2023-04-17T08:11:58.491Z,19.23
2023-04-17T08:14:25.892Z,19.33
2023-04-17T08:16:53.385Z,19.46
2023-04-17T08:19:21.058Z,19.38
2023-04-17T08:21:49.077Z,19.61
2023-04-17T08:24:19.788Z,19.62
2023-04-17T08:26:47.978Z,19.68
2023-04-17T08:29:15.801Z,19.70
2023-04-17T08:31:43.565Z,19.79
2023-04-17T08:34:14.783Z,20.13
2023-04-17T08:36:43.154Z,20.31
2023-04-17T08:39:12.330Z,20.39
2023-04-17T08:41:45.253Z,20.42
2023-04-17T08:44:13.855Z,20.63
2023-04-17T08:46:41.541Z,20.78
2023-04-17T08:49:08.912Z,20.56
2023-04-17T08:51:36.689Z,20.62
2023-04-17T08:54:04.174Z,20.79
2023-04-17T08:56:31.627Z,20.65
2023-04-17T08:58:59.298Z,20.61
2023-04-17T09:01:28.395Z,20.48
2023-04-17T09:03:57.272Z,20.40
2023-04-17T09:06:25.352Z,20.09
2023-04-17T09:09:04.094Z,20.24
2023-04-17T09:11:31.734Z,20.43
2023-04-17T09:14:01.135Z,20.27
2023-04-17T09:16:29.139Z,20.39
2023-04-17T09:19:07.029Z,20.51
2023-04-17T09:21:34.469Z,20.56
2023-04-17T09:24:02.302Z,20.57
2023-04-17T09:26:32.003Z,20.85
2023-04-17T09:29:14.755Z,20.78
2023-04-17T09:31:43.089Z,20.94
2023-04-17T09:34:16.380Z,21.07
2023-04-17T09:36:44.266Z,21.14
2023-04-17T09:39:20.610Z,21.01
2023-04-17T09:41:48.663Z,21.04
2023-04-17T09:44:28.221Z,20.93
2023-04-17T09:46:56.408Z,21.16
2023-04-17T09:49:33.938Z,21.04
2023-04-17T09:52:02.846Z,20.93
2023-04-17T09:54:31.585Z,20.94
2023-04-17T09:56:59.432Z,20.97
2023-04-17T09:59:27.706Z,20.93
2023-04-17T10:01:55.731Z,20.82
2023-04-17T10:04:23.878Z,20.77
2023-04-17T10:06:51.368Z,20.61
2023-04-17T10:09:18.733Z,20.71
2023-04-17T10:11:47.075Z,20.73
2023-04-17T10:14:23.809Z,20.52
2023-04-17T10:16:52.074Z,20.67
2023-04-17T10:19:31.250Z,20.81
2023-04-17T10:22:14.251Z,20.84
2023-04-17T10:24:42.654Z,20.63
2023-04-17T10:27:28.444Z,20.70
2023-04-17T10:29:58.000Z,20.77
2023-04-17T10:32:28.640Z,21.01
2023-04-17T10:35:01.287Z,20.95
2023-04-17T10:38:13.035Z,20.74
2023-04-17T10:40:43.266Z,20.84
2023-04-17T10:43:13.793Z,20.95
2023-04-17T10:45:53.840Z,20.97
2023-04-17T10:48:38.130Z,20.85
2023-04-17T10:51:21.382Z,20.74
2023-04-17T10:53:49.718Z,20.92
2023-04-17T10:56:27.075Z,21.14
2023-04-17T10:59:01.828Z,20.97
2023-04-17T11:01:30.389Z,21.06
2023-04-17T11:04:01.511Z,20.95
2023-04-17T11:06:32.728Z,20.85
2023-04-17T11:09:00.859Z,20.93
2023-04-17T11:11:43.006Z,20.87
2023-04-17T11:14:19.426Z,20.85
2023-04-17T11:16:49.759Z,20.72
2023-04-17T11:19:19.166Z,20.43
2023-04-17T11:21:47.990Z,20.53
2023-04-17T11:24:25.470Z,20.40
2023-04-17T11:26:53.581Z,20.72
2023-04-17T11:29:22.157Z,20.73
2023-04-17T11:31:54.669Z,20.72
2023-04-17T11:34:22.726Z,20.56
2023-04-17T11:36:51.727Z,20.70
2023-04-17T11:39:20.244Z,20.71
2023-04-17T11:41:48.073Z,20.65
2023-04-17T11:44:17.288Z,20.73
2023-04-17T11:46:58.837Z,20.67
2023-04-17T11:49:37.427Z,20.69
2023-04-17T11:52:05.456Z,20.79
2023-04-17T11:54:39.675Z,20.90
2023-04-17T11:57:13.962Z,21.15
2023-04-17T11:59:42.846Z,21.12
2023-04-17T12:02:10.404Z,21.14
2023-04-17T12:04:39.675Z,21.21
2023-04-17T12:07:08.204Z,21.09
2023-04-17T12:09:36.038Z,21.17
2023-04-17T12:12:07.647Z,21.41
2023-04-17T12:14:35.480Z,21.46
2023-04-17T12:17:02.913Z,21.31
2023-04-17T12:19:31.914Z,21.32
2023-04-17T12:21:59.720Z,21.44
2023-04-17T12:24:27.241Z,21.39
2023-04-17T12:26:56.071Z,21.26
2023-04-17T12:29:36.234Z,21.10
2023-04-17T12:32:11.550Z,21.53
2023-04-17T12:34:39.127Z,21.41
2023-04-17T12:37:06.611Z,21.47
2023-04-17T12:39:34.493Z,21.82
2023-04-17T12:42:01.919Z,21.75
2023-04-17T12:44:29.535Z,21.69
2023-04-17T12:46:57.254Z,21.63
2023-04-17T12:49:24.717Z,21.54
2023-04-17T12:51:52.533Z,21.55
2023-04-17T12:54:20.335Z,21.75
2023-04-17T12:56:47.786Z,21.72
2023-04-17T12:59:15.264Z,21.60
2023-04-17T13:01:43.633Z,21.69
2023-04-17T13:04:11.367Z,21.61
2023-04-17T13:06:39.211Z,21.79
2023-04-17T13:09:07.086Z,21.88
2023-04-17T13:11:34.472Z,22.01
2023-04-17T13:14:02.021Z,21.88
2023-04-17T13:16:29.817Z,22.05
2023-04-17T13:18:57.439Z,21.83
2023-04-17T13:21:24.864Z,21.82
2023-04-17T13:23:52.550Z,21.96
2023-04-17T13:26:20.583Z,22.04
2023-04-17T13:28:48.109Z,21.86
2023-04-17T13:31:16.441Z,22.08
2023-04-17T13:33:44.690Z,22.29
2023-04-17T13:36:12.340Z,22.40
2023-04-17T13:38:40.053Z,22.46
2023-04-17T13:41:07.520Z,22.33
2023-04-17T13:43:34.955Z,22.34
2023-04-17T13:46:02.712Z,22.05
2023-04-17T13:48:30.466Z,21.93
2023-04-17T13:50:57.881Z,21.82
2023-04-17T13:53:25.681Z,21.29
2023-04-17T13:55:53.041Z,21.36
2023-04-17T13:58:20.639Z,21.13
2023-04-17T14:00:48.342Z,20.84
2023-04-17T14:03:16.190Z,20.83
2023-04-17T14:05:43.988Z,20.68
2023-04-17T14:08:11.410Z,20.50
2023-04-17T14:10:39.429Z,20.45
2023-04-17T14:13:07.185Z,20.31
2023-04-17T14:15:34.912Z,20.30
2023-04-17T14:18:02.660Z,20.36
2023-04-17T14:20:30.291Z,20.34
2023-04-17T14:22:57.693Z,20.29
2023-04-17T14:25:25.381Z,20.28
2023-04-17T14:27:52.757Z,20.14
2023-04-17T14:30:20.336Z,19.94
2023-04-17T14:32:49.406Z,20.20
2023-04-17T14:35:16.982Z,20.19
2023-04-17T14:37:44.423Z,20.13
2023-04-17T14:40:12.585Z,20.21
2023-04-17T14:42:51.156Z,20.18
2023-04-17T14:45:21.659Z,20.27
2023-04-17T14:47:49.474Z,20.24
2023-04-17T14:50:17.022Z,20.21
2023-04-17T14:52:44.727Z,20.25
2023-04-17T14:55:12.489Z,20.28
2023-04-17T14:57:39.968Z,20.30
2023-04-17T15:00:08.640Z,20.26
2023-04-17T15:02:38.315Z,20.20
2023-04-17T15:05:06.895Z,19.90
2023-04-17T15:07:35.301Z,20.09
2023-04-17T15:10:02.825Z,19.95
2023-04-17T15:12:30.229Z,20.07
2023-04-17T15:14:57.925Z,20.04
2023-04-17T15:17:25.574Z,20.00
2023-04-17T15:19:54.802Z,19.96
2023-04-17T15:22:22.587Z,19.98
2023-04-17T15:24:49.995Z,20.01
2023-04-17T15:27:17.503Z,19.94
2023-04-17T15:29:45.975Z,19.82
2023-04-17T15:32:13.585Z,19.71
2023-04-17T15:34:41.090Z,19.70
2023-04-17T15:37:10.577Z,19.72
2023-04-17T15:39:39.286Z,19.70
2023-04-17T15:42:11.080Z,19.64
2023-04-17T15:44:38.889Z,19.65
2023-04-17T15:47:06.752Z,19.69
2023-04-17T15:49:34.462Z,19.80
2023-04-17T15:52:02.149Z,19.79
2023-04-17T15:54:30.965Z,19.73
2023-04-17T15:56:59.095Z,19.72
2023-04-17T15:59:26.984Z,19.73
2023-04-17T16:01:54.658Z,19.72
2023-04-17T16:04:22.633Z,19.74
2023-04-17T16:06:50.917Z,19.74
2023-04-17T16:09:20.088Z,19.78
2023-04-17T16:11:48.523Z,19.82
2023-04-17T16:14:16.116Z,19.89
2023-04-17T16:16:43.502Z,19.78
2023-04-17T16:19:11.534Z,19.68
2023-04-17T16:21:39.123Z,19.63
2023-04-17T16:24:06.602Z,19.64
2023-04-17T16:26:34.263Z,19.64
2023-04-17T16:29:01.743Z,19.59
2023-04-17T16:31:29.362Z,19.46
2023-04-17T16:33:57.106Z,19.14
2023-04-17T16:36:24.518Z,19.45
2023-04-17T16:38:51.923Z,19.09
2023-04-17T16:41:20.397Z,19.03
2023-04-17T16:43:48.067Z,18.95
2023-04-17T16:46:23.907Z,18.94
2023-04-17T16:48:56.347Z,19.01
2023-04-17T16:51:23.951Z,18.98
2023-04-17T16:53:51.533Z,19.02
2023-04-17T16:56:19.235Z,19.00
2023-04-17T16:58:46.664Z,18.95
2023-04-17T17:01:14.152Z,18.96
2023-04-17T17:03:43.315Z,19.11
2023-04-17T17:06:10.819Z,19.20
2023-04-17T17:08:38.923Z,19.30
2023-04-17T17:11:06.585Z,19.08
2023-04-17T17:13:34.068Z,19.17
2023-04-17T17:16:01.596Z,19.02
2023-04-17T17:18:29.355Z,18.99
2023-04-17T17:20:58.546Z,18.99
2023-04-17T17:23:26.620Z,18.98
2023-04-17T17:25:54.294Z,19.08
2023-04-17T17:28:21.729Z,18.94
2023-04-17T17:30:49.193Z,19.00
2023-04-17T17:33:17.072Z,18.98
2023-04-17T17:35:44.424Z,18.80
2023-04-17T17:38:12.261Z,18.94
2023-04-17T17:40:40.034Z,18.81
2023-04-17T17:43:07.421Z,18.61
2023-04-17T17:45:34.850Z,18.57
2023-04-17T17:48:02.603Z,18.65
2023-04-17T17:50:30.051Z,18.72
2023-04-17T17:52:58.946Z,18.66
2023-04-17T17:55:26.840Z,18.61
2023-04-17T17:57:54.264Z,18.65
2023-04-17T18:00:21.785Z,18.70
2023-04-17T18:02:49.801Z,18.64
2023-04-17T18:05:18.011Z,18.70
2023-04-17T18:07:45.577Z,18.54
2023-04-17T18:10:13.441Z,18.52
2023-04-17T18:12:40.835Z,18.59
2023-04-17T18:15:08.990Z,18.54
2023-04-17T18:17:36.789Z,18.39
2023-04-17T18:20:04.710Z,18.52
2023-04-17T18:22:32.554Z,18.43
2023-04-17T18:25:00.202Z,18.47
2023-04-17T18:27:27.643Z,18.49
2023-04-17T18:29:55.347Z,18.61
2023-04-17T18:32:23.034Z,18.46
2023-04-17T18:34:51.280Z,18.42
2023-04-17T18:37:18.914Z,18.50
2023-04-17T18:39:46.547Z,18.51
2023-04-17T18:42:13.966Z,18.45
2023-04-17T18:44:41.915Z,18.43
2023-04-17T18:47:09.882Z,18.31
2023-04-17T18:49:37.308Z,18.42
2023-04-17T18:52:05.600Z,18.35
2023-04-17T18:54:33.836Z,18.40
2023-04-17T18:57:01.850Z,18.40
2023-04-17T18:59:30.174Z,18.36
2023-04-17T19:01:58.028Z,18.34
2023-04-17T19:04:25.990Z,18.30
2023-04-17T19:06:53.364Z,18.35
2023-04-17T19:09:21.141Z,18.41
2023-04-17T19:11:48.580Z,18.28
2023-04-17T19:14:15.959Z,18.31
2023-04-17T19:16:45.826Z,18.34
2023-04-17T19:19:15.474Z,18.22
2023-04-17T19:21:43.311Z,18.20
2023-04-17T19:24:11.015Z,18.22
2023-04-17T19:26:38.382Z,18.26
2023-04-17T19:29:05.844Z,18.20
2023-04-17T19:31:33.737Z,18.13
2023-04-17T19:34:01.629Z,18.12
2023-04-17T19:36:29.214Z,18.00
2023-04-17T19:38:59.620Z,18.05
2023-04-17T19:41:28.113Z,17.98
2023-04-17T19:43:55.554Z,17.96
2023-04-17T19:46:24.096Z,18.02
2023-04-17T19:48:52.337Z,17.93
2023-04-17T19:51:19.792Z,18.00
2023-04-17T19:53:48.056Z,17.84
2023-04-17T19:56:16.491Z,17.96
2023-04-17T19:58:43.929Z,17.98
2023-04-17T20:01:11.815Z,17.95
2023-04-17T20:03:42.013Z,17.79
2023-04-17T20:06:09.672Z,17.98
2023-04-17T20:08:37.405Z,17.98
2023-04-17T20:11:06.373Z,17.96
2023-04-17T20:13:33.973Z,17.82
2023-04-17T20:16:01.421Z,17.69
2023-04-17T20:18:29.086Z,17.69
2023-04-17T20:20:56.486Z,17.95
2023-04-17T20:23:23.962Z,17.89
2023-04-17T20:25:51.656Z,17.67
2023-04-17T20:28:19.262Z,17.61
2023-04-17T20:30:46.996Z,17.69
2023-04-17T20:33:14.711Z,17.72
2023-04-17T20:35:42.349Z,17.73
2023-04-17T20:38:09.763Z,17.55
2023-04-17T20:40:37.518Z,17.86
2023-04-17T20:43:04.964Z,17.76
2023-04-17T20:45:32.434Z,17.87
2023-04-17T20:48:00.360Z,17.97
2023-04-17T20:50:28.392Z,17.91
2023-04-17T20:52:56.124Z,17.96
2023-04-17T20:55:24.268Z,18.05
2023-04-17T20:57:51.903Z,18.08
2023-04-17T21:00:19.559Z,18.21
2023-04-17T21:02:47.461Z,18.15
2023-04-17T21:05:15.079Z,18.21
2023-04-17T21:07:42.449Z,18.13
2023-04-17T21:10:10.132Z,18.13
2023-04-17T21:12:37.814Z,18.21
2023-04-17T21:15:05.703Z,18.06
2023-04-17T21:17:33.396Z,18.05
2023-04-17T21:20:00.772Z,18.03
2023-04-17T21:22:28.226Z,17.99
2023-04-17T21:24:55.892Z,18.03
2023-04-17T21:27:23.580Z,17.98
2023-04-17T21:29:51.038Z,18.06
2023-04-17T21:32:18.740Z,17.94
2023-04-17T21:34:46.163Z,17.96
2023-04-17T21:37:13.566Z,17.97
2023-04-17T21:39:41.204Z,17.82
2023-04-17T21:42:09.740Z,18.00
2023-04-17T21:44:37.192Z,17.86
2023-04-17T21:47:04.869Z,17.93
2023-04-17T21:49:32.219Z,17.97
2023-04-17T21:51:59.653Z,18.00
2023-04-17T21:54:27.687Z,17.74
2023-04-17T21:56:55.703Z,17.82
2023-04-17T21:59:24.325Z,17.88
2023-04-17T22:01:52.257Z,17.69
2023-04-17T22:04:20.016Z,17.69
2023-04-17T22:06:47.450Z,17.74
2023-04-17T22:09:14.969Z,17.80
2023-04-17T22:11:42.677Z,17.87
2023-04-17T22:14:10.147Z,17.68
2023-04-17T22:16:37.652Z,17.68
2023-04-17T22:19:05.422Z,17.44
2023-04-17T22:21:32.797Z,17.55
2023-04-17T22:24:00.234Z,17.38
2023-04-17T22:26:28.112Z,17.46
2023-04-17T22:28:55.494Z,17.39
2023-04-17T22:31:23.097Z,17.41
2023-04-17T22:33:50.795Z,17.41
2023-04-17T22:36:18.205Z,17.47
2023-04-17T22:38:45.992Z,17.31
2023-04-17T22:41:13.773Z,17.50
2023-04-17T22:43:41.159Z,17.48
2023-04-17T22:46:08.604Z,17.42
2023-04-17T22:48:36.773Z,17.43
2023-04-17T22:51:04.388Z,17.42
2023-04-17T22:53:31.816Z,17.36
2023-04-17T22:56:03.468Z,17.40
2023-04-17T22:58:32.008Z,17.47
2023-04-17T23:01:00.286Z,17.44
2023-04-17T23:03:28.117Z,17.34
2023-04-17T23:05:55.922Z,17.34
2023-04-17T23:08:24.151Z,17.27
2023-04-17T23:10:59.680Z,17.30
2023-04-17T23:13:28.129Z,17.31
2023-04-17T23:15:55.701Z,17.33
2023-04-17T23:18:23.532Z,17.31
2023-04-17T23:20:51.367Z,17.39
2023-04-17T23:23:19.024Z,17.39
2023-04-17T23:25:46.467Z,17.41
2023-04-17T23:28:14.439Z,17.36
2023-04-17T23:30:42.133Z,17.23
2023-04-17T23:33:09.768Z,17.17
2023-04-17T23:35:37.918Z,17.02
2023-04-17T23:38:05.383Z,17.03
2023-04-17T23:40:34.761Z,17.02
2023-04-17T23:43:02.574Z,16.95
2023-04-17T23:45:29.966Z,17.09
2023-04-17T23:47:57.563Z,17.00
2023-04-17T23:50:25.995Z,17.01
2023-04-17T23:52:54.922Z,16.93
2023-04-17T23:55:23.111Z,16.86
2023-04-17T23:57:50.811Z,16.93
